sensor_id;sensor_type;location;lat;lon;timestamp;temperature;humidity
69031;DHT22;56083;48.774;8.942;2022-10-16T00:00:32;14.30;99.90
69031;DHT22;56083;48.774;8.942;2022-10-16T00:02:57;14.30;99.90
69031;DHT22;56083;48.774;8.942;2022-10-16T00:05:23;14.20;99.90
69031;DHT22;56083;48.774;8.942;2022-10-16T00:07:49;14.30;99.90
69031;DHT22;56083;48.774;8.942;2022-10-16T00:10:15;14.20;99.90
69031;DHT22;56083;48.774;8.942;2022-10-16T00:12:41;14.20;99.90
69031;DHT22;56083;48.774;8.942;2022-10-16T00:15:07;14.20;99.90
69031;DHT22;56083;48.774;8.942;2022-10-16T00:17:32;14.10;99.90
69031;DHT22;56083;48.774;8.942;2022-10-16T00:19:58;14.10;99.90
69031;DHT22;56083;48.774;8.942;2022-10-16T00:22:24;14.10;99.90
69031;DHT22;56083;48.774;8.942;2022-10-16T00:24:50;14.00;99.90
69031;DHT22;56083;48.774;8.942;2022-10-16T00:27:16;14.00;99.90
69031;DHT22;56083;48.774;8.942;2022-10-16T00:29:42;13.90;99.90
69031;DHT22;56083;48.774;8.942;2022-10-16T00:32:08;13.80;99.90
69031;DHT22;56083;48.774;8.942;2022-10-16T00:34:34;13.80;99.90
69031;DHT22;56083;48.774;8.942;2022-10-16T00:37:00;13.70;99.90
69031;DHT22;56083;48.774;8.942;2022-10-16T00:39:25;13.80;99.90
69031;DHT22;56083;48.774;8.942;2022-10-16T00:41:51;13.90;99.90
69031;DHT22;56083;48.774;8.942;2022-10-16T00:50:34;14.30;99.90
69031;DHT22;56083;48.774;8.942;2022-10-16T00:53:01;14.40;99.90
69031;DHT22;56083;48.774;8.942;2022-10-16T00:55:27;14.50;99.90
69031;DHT22;56083;48.774;8.942;2022-10-16T00:57:56;14.50;99.90
69031;DHT22;56083;48.774;8.942;2022-10-16T01:00:25;14.60;99.90
69031;DHT22;56083;48.774;8.942;2022-10-16T01:02:55;14.60;99.90
69031;DHT22;56083;48.774;8.942;2022-10-16T01:05:22;14.70;99.90
69031;DHT22;56083;48.774;8.942;2022-10-16T01:08:14;14.70;99.90
69031;DHT22;56083;48.774;8.942;2022-10-16T01:10:52;14.80;99.90
69031;DHT22;56083;48.774;8.942;2022-10-16T01:13:32;14.80;99.90
69031;DHT22;56083;48.774;8.942;2022-10-16T01:16:06;14.80;99.90
69031;DHT22;56083;48.774;8.942;2022-10-16T01:18:44;14.80;99.90
69031;DHT22;56083;48.774;8.942;2022-10-16T01:21:16;14.80;99.90
69031;DHT22;56083;48.774;8.942;2022-10-16T01:29:28;14.70;99.90
69031;DHT22;56083;48.774;8.942;2022-10-16T01:32:02;14.60;99.90
69031;DHT22;56083;48.774;8.942;2022-10-16T01:34:38;14.50;99.90
69031;DHT22;56083;48.774;8.942;2022-10-16T01:37:12;14.40;99.90
69031;DHT22;56083;48.774;8.942;2022-10-16T01:39:40;14.40;99.90
69031;DHT22;56083;48.774;8.942;2022-10-16T01:42:25;14.40;99.90
69031;DHT22;56083;48.774;8.942;2022-10-16T01:44:53;14.40;99.90
69031;DHT22;56083;48.774;8.942;2022-10-16T01:47:22;14.30;99.90
69031;DHT22;56083;48.774;8.942;2022-10-16T01:49:49;14.30;99.90
69031;DHT22;56083;48.774;8.942;2022-10-16T01:52:19;14.30;99.90
69031;DHT22;56083;48.774;8.942;2022-10-16T01:54:47;14.30;99.90
69031;DHT22;56083;48.774;8.942;2022-10-16T01:57:16;14.30;99.90
69031;DHT22;56083;48.774;8.942;2022-10-16T01:59:48;14.30;99.90
69031;DHT22;56083;48.774;8.942;2022-10-16T02:02:15;14.30;99.90
69031;DHT22;56083;48.774;8.942;2022-10-16T02:04:48;14.30;99.90
69031;DHT22;56083;48.774;8.942;2022-10-16T02:07:15;14.20;99.90
69031;DHT22;56083;48.774;8.942;2022-10-16T02:09:42;14.20;99.90
69031;DHT22;56083;48.774;8.942;2022-10-16T02:12:28;14.20;99.90
69031;DHT22;56083;48.774;8.942;2022-10-16T02:14:54;14.20;99.90
69031;DHT22;56083;48.774;8.942;2022-10-16T02:17:20;14.20;99.90
69031;DHT22;56083;48.774;8.942;2022-10-16T02:19:48;14.20;99.90
69031;DHT22;56083;48.774;8.942;2022-10-16T02:22:37;14.20;99.90
69031;DHT22;56083;48.774;8.942;2022-10-16T02:25:16;14.20;99.90
69031;DHT22;56083;48.774;8.942;2022-10-16T02:28:17;14.20;99.90
69031;DHT22;56083;48.774;8.942;2022-10-16T02:30:50;14.20;99.90
69031;DHT22;56083;48.774;8.942;2022-10-16T02:33:17;14.20;99.90
69031;DHT22;56083;48.774;8.942;2022-10-16T02:35:46;14.10;99.90
69031;DHT22;56083;48.774;8.942;2022-10-16T02:38:15;14.10;99.90
69031;DHT22;56083;48.774;8.942;2022-10-16T02:40:42;14.10;99.90
69031;DHT22;56083;48.774;8.942;2022-10-16T02:43:08;14.10;99.90
69031;DHT22;56083;48.774;8.942;2022-10-16T02:45:35;14.00;99.90
69031;DHT22;56083;48.774;8.942;2022-10-16T02:48:01;14.00;99.90
69031;DHT22;56083;48.774;8.942;2022-10-16T02:50:26;14.00;99.90
69031;DHT22;56083;48.774;8.942;2022-10-16T02:52:52;14.00;99.90
69031;DHT22;56083;48.774;8.942;2022-10-16T02:55:18;14.00;99.90
69031;DHT22;56083;48.774;8.942;2022-10-16T02:57:44;14.00;99.90
69031;DHT22;56083;48.774;8.942;2022-10-16T03:00:12;14.00;99.90
69031;DHT22;56083;48.774;8.942;2022-10-16T03:02:39;13.90;99.90
69031;DHT22;56083;48.774;8.942;2022-10-16T03:05:05;13.90;99.90
69031;DHT22;56083;48.774;8.942;2022-10-16T03:07:31;13.90;99.90
69031;DHT22;56083;48.774;8.942;2022-10-16T03:09:57;13.90;99.90
69031;DHT22;56083;48.774;8.942;2022-10-16T03:12:27;13.80;99.90
69031;DHT22;56083;48.774;8.942;2022-10-16T03:14:55;13.80;99.90
69031;DHT22;56083;48.774;8.942;2022-10-16T03:17:20;13.80;99.90
69031;DHT22;56083;48.774;8.942;2022-10-16T03:19:46;13.80;99.90
69031;DHT22;56083;48.774;8.942;2022-10-16T03:22:12;13.80;99.90
69031;DHT22;56083;48.774;8.942;2022-10-16T03:24:37;13.70;99.90
69031;DHT22;56083;48.774;8.942;2022-10-16T03:27:03;13.70;99.90
69031;DHT22;56083;48.774;8.942;2022-10-16T03:29:28;13.70;99.90
69031;DHT22;56083;48.774;8.942;2022-10-16T03:31:55;13.70;99.90
69031;DHT22;56083;48.774;8.942;2022-10-16T03:34:21;13.60;99.90
69031;DHT22;56083;48.774;8.942;2022-10-16T03:36:47;13.60;99.90
69031;DHT22;56083;48.774;8.942;2022-10-16T03:39:13;13.60;99.90
69031;DHT22;56083;48.774;8.942;2022-10-16T03:41:38;13.60;99.90
69031;DHT22;56083;48.774;8.942;2022-10-16T03:44:05;13.60;99.90
69031;DHT22;56083;48.774;8.942;2022-10-16T03:46:31;13.60;99.90
69031;DHT22;56083;48.774;8.942;2022-10-16T03:48:57;13.50;99.90
69031;DHT22;56083;48.774;8.942;2022-10-16T03:51:22;13.50;99.90
69031;DHT22;56083;48.774;8.942;2022-10-16T03:53:48;13.50;99.90
69031;DHT22;56083;48.774;8.942;2022-10-16T03:56:13;13.50;99.90
69031;DHT22;56083;48.774;8.942;2022-10-16T03:58:39;13.50;99.90
69031;DHT22;56083;48.774;8.942;2022-10-16T04:01:05;13.60;99.90
69031;DHT22;56083;48.774;8.942;2022-10-16T04:03:30;13.50;99.90
69031;DHT22;56083;48.774;8.942;2022-10-16T04:05:56;13.50;99.90
69031;DHT22;56083;48.774;8.942;2022-10-16T04:08:22;13.50;99.90
69031;DHT22;56083;48.774;8.942;2022-10-16T04:10:48;13.50;99.90
69031;DHT22;56083;48.774;8.942;2022-10-16T04:13:14;13.50;99.90
69031;DHT22;56083;48.774;8.942;2022-10-16T04:15:39;13.50;99.90
69031;DHT22;56083;48.774;8.942;2022-10-16T04:18:05;13.50;99.90
69031;DHT22;56083;48.774;8.942;2022-10-16T04:20:32;13.50;99.90
69031;DHT22;56083;48.774;8.942;2022-10-16T04:22:58;13.40;99.90
69031;DHT22;56083;48.774;8.942;2022-10-16T04:25:24;13.50;99.90
69031;DHT22;56083;48.774;8.942;2022-10-16T04:27:49;13.50;99.90
69031;DHT22;56083;48.774;8.942;2022-10-16T04:30:15;13.50;99.90
69031;DHT22;56083;48.774;8.942;2022-10-16T04:32:40;13.50;99.90
69031;DHT22;56083;48.774;8.942;2022-10-16T04:35:06;13.50;99.90
69031;DHT22;56083;48.774;8.942;2022-10-16T04:37:32;13.50;99.90
69031;DHT22;56083;48.774;8.942;2022-10-16T04:39:58;13.50;99.90
69031;DHT22;56083;48.774;8.942;2022-10-16T04:42:23;13.60;99.90
69031;DHT22;56083;48.774;8.942;2022-10-16T04:44:49;13.60;99.90
69031;DHT22;56083;48.774;8.942;2022-10-16T04:47:15;13.60;99.90
69031;DHT22;56083;48.774;8.942;2022-10-16T04:49:40;13.60;99.90
69031;DHT22;56083;48.774;8.942;2022-10-16T04:52:06;13.60;99.90
69031;DHT22;56083;48.774;8.942;2022-10-16T04:54:32;13.70;99.90
69031;DHT22;56083;48.774;8.942;2022-10-16T04:56:57;13.70;99.90
69031;DHT22;56083;48.774;8.942;2022-10-16T04:59:23;13.60;99.90
69031;DHT22;56083;48.774;8.942;2022-10-16T05:01:49;13.60;99.90
69031;DHT22;56083;48.774;8.942;2022-10-16T05:04:15;13.60;99.90
69031;DHT22;56083;48.774;8.942;2022-10-16T05:06:41;13.60;99.90
69031;DHT22;56083;48.774;8.942;2022-10-16T05:09:07;13.60;99.90
69031;DHT22;56083;48.774;8.942;2022-10-16T05:11:33;13.60;99.90
69031;DHT22;56083;48.774;8.942;2022-10-16T05:14:00;13.60;99.90
69031;DHT22;56083;48.774;8.942;2022-10-16T05:16:26;13.50;99.90
69031;DHT22;56083;48.774;8.942;2022-10-16T05:18:52;13.50;99.90
69031;DHT22;56083;48.774;8.942;2022-10-16T05:21:17;13.50;99.90
69031;DHT22;56083;48.774;8.942;2022-10-16T05:23:43;13.50;99.90
69031;DHT22;56083;48.774;8.942;2022-10-16T05:26:09;13.50;99.90
69031;DHT22;56083;48.774;8.942;2022-10-16T05:28:34;13.50;99.90
69031;DHT22;56083;48.774;8.942;2022-10-16T05:31:07;13.40;99.90
69031;DHT22;56083;48.774;8.942;2022-10-16T05:33:33;13.40;99.90
69031;DHT22;56083;48.774;8.942;2022-10-16T05:36:04;13.40;99.90
69031;DHT22;56083;48.774;8.942;2022-10-16T05:38:29;13.40;99.90
69031;DHT22;56083;48.774;8.942;2022-10-16T05:40:55;13.30;99.90
69031;DHT22;56083;48.774;8.942;2022-10-16T05:43:21;13.30;99.90
69031;DHT22;56083;48.774;8.942;2022-10-16T05:46:05;13.30;99.90
69031;DHT22;56083;48.774;8.942;2022-10-16T05:48:31;13.40;99.90
69031;DHT22;56083;48.774;8.942;2022-10-16T05:53:23;13.40;99.90
69031;DHT22;56083;48.774;8.942;2022-10-16T05:55:57;13.50;99.90
69031;DHT22;56083;48.774;8.942;2022-10-16T05:58:25;13.60;99.90
69031;DHT22;56083;48.774;8.942;2022-10-16T06:00:58;13.60;99.90
69031;DHT22;56083;48.774;8.942;2022-10-16T06:03:26;13.70;99.90
69031;DHT22;56083;48.774;8.942;2022-10-16T06:05:52;13.80;99.90
69031;DHT22;56083;48.774;8.942;2022-10-16T06:08:19;13.80;99.90
69031;DHT22;56083;48.774;8.942;2022-10-16T06:10:46;13.70;99.90
69031;DHT22;56083;48.774;8.942;2022-10-16T06:13:13;13.80;99.90
69031;DHT22;56083;48.774;8.942;2022-10-16T06:15:39;13.80;99.90
69031;DHT22;56083;48.774;8.942;2022-10-16T06:18:07;14.00;99.90
69031;DHT22;56083;48.774;8.942;2022-10-16T06:20:33;14.30;99.90
69031;DHT22;56083;48.774;8.942;2022-10-16T06:22:58;14.50;99.90
69031;DHT22;56083;48.774;8.942;2022-10-16T06:25:24;14.50;99.90
69031;DHT22;56083;48.774;8.942;2022-10-16T06:27:49;14.50;99.90
69031;DHT22;56083;48.774;8.942;2022-10-16T06:30:15;14.40;99.90
69031;DHT22;56083;48.774;8.942;2022-10-16T06:32:41;14.40;99.90
69031;DHT22;56083;48.774;8.942;2022-10-16T06:35:06;14.40;99.90
69031;DHT22;56083;48.774;8.942;2022-10-16T06:37:32;14.40;99.90
69031;DHT22;56083;48.774;8.942;2022-10-16T06:39:59;14.40;99.90
69031;DHT22;56083;48.774;8.942;2022-10-16T06:42:25;14.50;99.90
69031;DHT22;56083;48.774;8.942;2022-10-16T06:44:51;14.50;99.90
69031;DHT22;56083;48.774;8.942;2022-10-16T06:47:17;14.60;99.90
69031;DHT22;56083;48.774;8.942;2022-10-16T06:49:43;14.60;99.90
69031;DHT22;56083;48.774;8.942;2022-10-16T06:52:08;14.60;99.90
69031;DHT22;56083;48.774;8.942;2022-10-16T06:54:34;14.60;99.90
69031;DHT22;56083;48.774;8.942;2022-10-16T06:57:00;14.70;99.90
69031;DHT22;56083;48.774;8.942;2022-10-16T06:59:27;14.80;99.90
69031;DHT22;56083;48.774;8.942;2022-10-16T07:01:53;14.90;99.90
69031;DHT22;56083;48.774;8.942;2022-10-16T07:04:18;15.00;99.90
69031;DHT22;56083;48.774;8.942;2022-10-16T07:06:44;15.10;99.90
69031;DHT22;56083;48.774;8.942;2022-10-16T07:09:11;15.30;99.90
69031;DHT22;56083;48.774;8.942;2022-10-16T07:11:38;15.40;99.90
69031;DHT22;56083;48.774;8.942;2022-10-16T07:14:14;15.50;99.90
69031;DHT22;56083;48.774;8.942;2022-10-16T07:16:40;15.60;99.90
69031;DHT22;56083;48.774;8.942;2022-10-16T07:19:06;15.60;99.90
69031;DHT22;56083;48.774;8.942;2022-10-16T07:21:33;15.60;99.90
69031;DHT22;56083;48.774;8.942;2022-10-16T07:24:04;15.50;99.90
69031;DHT22;56083;48.774;8.942;2022-10-16T07:26:32;15.50;99.90
69031;DHT22;56083;48.774;8.942;2022-10-16T07:28:58;15.40;99.90
69031;DHT22;56083;48.774;8.942;2022-10-16T07:31:25;15.50;99.90
69031;DHT22;56083;48.774;8.942;2022-10-16T07:33:51;15.50;99.90
69031;DHT22;56083;48.774;8.942;2022-10-16T07:36:22;15.50;99.90
69031;DHT22;56083;48.774;8.942;2022-10-16T07:38:47;15.60;99.90
69031;DHT22;56083;48.774;8.942;2022-10-16T07:41:15;15.70;99.90
69031;DHT22;56083;48.774;8.942;2022-10-16T07:43:48;15.70;99.90
69031;DHT22;56083;48.774;8.942;2022-10-16T07:46:14;15.80;99.90
69031;DHT22;56083;48.774;8.942;2022-10-16T07:48:40;15.90;99.90
69031;DHT22;56083;48.774;8.942;2022-10-16T07:51:07;16.00;99.90
69031;DHT22;56083;48.774;8.942;2022-10-16T07:53:33;16.10;99.90
69031;DHT22;56083;48.774;8.942;2022-10-16T07:55:59;16.00;99.90
69031;DHT22;56083;48.774;8.942;2022-10-16T07:58:26;16.20;99.90
69031;DHT22;56083;48.774;8.942;2022-10-16T08:00:53;16.30;99.90
69031;DHT22;56083;48.774;8.942;2022-10-16T08:03:18;16.50;99.90
69031;DHT22;56083;48.774;8.942;2022-10-16T08:05:44;16.70;99.90
69031;DHT22;56083;48.774;8.942;2022-10-16T08:08:14;17.00;99.90
69031;DHT22;56083;48.774;8.942;2022-10-16T08:10:40;17.50;99.90
69031;DHT22;56083;48.774;8.942;2022-10-16T08:13:06;17.90;99.90
69031;DHT22;56083;48.774;8.942;2022-10-16T08:15:32;18.30;99.90
69031;DHT22;56083;48.774;8.942;2022-10-16T08:18:03;18.60;99.90
69031;DHT22;56083;48.774;8.942;2022-10-16T08:20:30;18.50;99.90
69031;DHT22;56083;48.774;8.942;2022-10-16T08:22:56;18.60;99.90
69031;DHT22;56083;48.774;8.942;2022-10-16T08:25:23;18.70;99.90
69031;DHT22;56083;48.774;8.942;2022-10-16T08:27:49;18.80;99.90
69031;DHT22;56083;48.774;8.942;2022-10-16T08:30:17;18.70;99.90
69031;DHT22;56083;48.774;8.942;2022-10-16T08:32:43;18.70;99.90
69031;DHT22;56083;48.774;8.942;2022-10-16T08:35:09;18.70;99.90
69031;DHT22;56083;48.774;8.942;2022-10-16T08:37:36;18.60;99.90
69031;DHT22;56083;48.774;8.942;2022-10-16T08:40:02;18.60;99.90
69031;DHT22;56083;48.774;8.942;2022-10-16T08:47:47;18.30;99.90
69031;DHT22;56083;48.774;8.942;2022-10-16T08:50:22;18.20;99.90
69031;DHT22;56083;48.774;8.942;2022-10-16T08:52:49;18.00;99.90
69031;DHT22;56083;48.774;8.942;2022-10-16T08:55:41;17.90;99.90
69031;DHT22;56083;48.774;8.942;2022-10-16T08:58:19;18.00;99.90
69031;DHT22;56083;48.774;8.942;2022-10-16T09:00:48;18.00;99.90
69031;DHT22;56083;48.774;8.942;2022-10-16T09:14:40;20.90;99.90
69031;DHT22;56083;48.774;8.942;2022-10-16T09:20:31;21.10;99.90
69031;DHT22;56083;48.774;8.942;2022-10-16T09:23:11;21.10;99.90
69031;DHT22;56083;48.774;8.942;2022-10-16T09:25:39;21.20;99.90
69031;DHT22;56083;48.774;8.942;2022-10-16T09:28:08;21.50;99.90
69031;DHT22;56083;48.774;8.942;2022-10-16T09:30:35;21.30;99.90
69031;DHT22;56083;48.774;8.942;2022-10-16T09:33:02;21.20;99.90
69031;DHT22;56083;48.774;8.942;2022-10-16T09:35:43;21.00;99.90
69031;DHT22;56083;48.774;8.942;2022-10-16T09:38:24;21.00;99.90
69031;DHT22;56083;48.774;8.942;2022-10-16T09:40:51;20.70;99.90
69031;DHT22;56083;48.774;8.942;2022-10-16T09:43:21;20.60;99.90
69031;DHT22;56083;48.774;8.942;2022-10-16T09:45:55;20.80;99.90
69031;DHT22;56083;48.774;8.942;2022-10-16T09:48:22;21.20;99.90
69031;DHT22;56083;48.774;8.942;2022-10-16T09:50:59;21.70;99.90
69031;DHT22;56083;48.774;8.942;2022-10-16T09:53:37;22.40;99.90
69031;DHT22;56083;48.774;8.942;2022-10-16T09:56:03;22.60;99.90
69031;DHT22;56083;48.774;8.942;2022-10-16T09:58:31;23.10;99.90
69031;DHT22;56083;48.774;8.942;2022-10-16T10:00:58;23.40;99.90
69031;DHT22;56083;48.774;8.942;2022-10-16T10:03:41;23.00;99.90
69031;DHT22;56083;48.774;8.942;2022-10-16T10:06:26;22.90;99.90
69031;DHT22;56083;48.774;8.942;2022-10-16T10:11:43;23.50;99.90
69031;DHT22;56083;48.774;8.942;2022-10-16T10:14:23;23.30;99.90
69031;DHT22;56083;48.774;8.942;2022-10-16T10:16:50;23.10;99.90
69031;DHT22;56083;48.774;8.942;2022-10-16T10:19:19;22.80;99.90
69031;DHT22;56083;48.774;8.942;2022-10-16T10:21:45;22.50;99.90
69031;DHT22;56083;48.774;8.942;2022-10-16T10:24:15;22.80;99.90
69031;DHT22;56083;48.774;8.942;2022-10-16T10:26:54;23.00;99.90
69031;DHT22;56083;48.774;8.942;2022-10-16T10:30:02;23.40;99.90
69031;DHT22;56083;48.774;8.942;2022-10-16T10:32:38;23.60;99.90
69031;DHT22;56083;48.774;8.942;2022-10-16T10:35:16;24.00;99.90
69031;DHT22;56083;48.774;8.942;2022-10-16T10:38:06;23.90;99.90
69031;DHT22;56083;48.774;8.942;2022-10-16T10:40:52;24.20;99.90
69031;DHT22;56083;48.774;8.942;2022-10-16T10:46:22;25.60;99.90
69031;DHT22;56083;48.774;8.942;2022-10-16T10:49:08;26.50;99.90
69031;DHT22;56083;48.774;8.942;2022-10-16T11:02:31;24.30;99.90
69031;DHT22;56083;48.774;8.942;2022-10-16T11:07:48;24.30;99.90
69031;DHT22;56083;48.774;8.942;2022-10-16T11:11:03;24.60;99.90
69031;DHT22;56083;48.774;8.942;2022-10-16T11:15:42;25.00;99.90
69031;DHT22;56083;48.774;8.942;2022-10-16T11:18:27;25.10;99.90
69031;DHT22;56083;48.774;8.942;2022-10-16T11:21:08;25.10;99.90
69031;DHT22;56083;48.774;8.942;2022-10-16T11:26:30;25.80;99.90
69031;DHT22;56083;48.774;8.942;2022-10-16T11:28:59;26.30;99.90
69031;DHT22;56083;48.774;8.942;2022-10-16T11:31:39;26.80;99.90
69031;DHT22;56083;48.774;8.942;2022-10-16T11:37:16;27.40;99.90
69031;DHT22;56083;48.774;8.942;2022-10-16T11:39:44;27.40;99.90
69031;DHT22;56083;48.774;8.942;2022-10-16T11:42:16;27.30;99.90
69031;DHT22;56083;48.774;8.942;2022-10-16T11:44:51;27.10;99.90
69031;DHT22;56083;48.774;8.942;2022-10-16T11:47:35;27.00;99.90
69031;DHT22;56083;48.774;8.942;2022-10-16T11:55:47;26.40;99.90
69031;DHT22;56083;48.774;8.942;2022-10-16T11:58:33;26.10;99.90
69031;DHT22;56083;48.774;8.942;2022-10-16T12:03:59;25.80;99.90
69031;DHT22;56083;48.774;8.942;2022-10-16T12:06:40;25.20;99.90
69031;DHT22;56083;48.774;8.942;2022-10-16T12:09:20;25.00;99.90
69031;DHT22;56083;48.774;8.942;2022-10-16T12:11:47;25.00;99.90
69031;DHT22;56083;48.774;8.942;2022-10-16T12:16:58;25.70;99.90
69031;DHT22;56083;48.774;8.942;2022-10-16T12:19:27;25.90;99.90
69031;DHT22;56083;48.774;8.942;2022-10-16T12:21:56;26.60;99.90
69031;DHT22;56083;48.774;8.942;2022-10-16T12:26:54;28.10;99.90
69031;DHT22;56083;48.774;8.942;2022-10-16T12:31:58;29.20;99.90
69031;DHT22;56083;48.774;8.942;2022-10-16T12:34:28;29.20;99.90
69031;DHT22;56083;48.774;8.942;2022-10-16T12:36:55;28.60;99.90
69031;DHT22;56083;48.774;8.942;2022-10-16T12:39:32;28.30;99.90
69031;DHT22;56083;48.774;8.942;2022-10-16T12:42:03;28.20;99.90
69031;DHT22;56083;48.774;8.942;2022-10-16T12:44:34;27.90;99.90
69031;DHT22;56083;48.774;8.942;2022-10-16T12:47:00;27.40;99.90
69031;DHT22;56083;48.774;8.942;2022-10-16T12:49:30;27.20;99.90
69031;DHT22;56083;48.774;8.942;2022-10-16T12:51:57;27.00;99.90
69031;DHT22;56083;48.774;8.942;2022-10-16T13:02:50;29.60;99.90
69031;DHT22;56083;48.774;8.942;2022-10-16T13:05:46;29.70;99.90
69031;DHT22;56083;48.774;8.942;2022-10-16T13:22:03;28.80;99.90
69031;DHT22;56083;48.774;8.942;2022-10-16T13:25:05;28.60;99.90
69031;DHT22;56083;48.774;8.942;2022-10-16T13:27:38;27.80;99.90
69031;DHT22;56083;48.774;8.942;2022-10-16T13:30:18;27.40;99.90
69031;DHT22;56083;48.774;8.942;2022-10-16T13:32:50;27.30;99.90
69031;DHT22;56083;48.774;8.942;2022-10-16T13:35:26;27.10;99.90
69031;DHT22;56083;48.774;8.942;2022-10-16T13:38:04;27.70;99.90
69031;DHT22;56083;48.774;8.942;2022-10-16T13:40:30;28.60;99.90
69031;DHT22;56083;48.774;8.942;2022-10-16T13:42:55;29.20;99.90
69031;DHT22;56083;48.774;8.942;2022-10-16T13:45:24;29.10;99.90
69031;DHT22;56083;48.774;8.942;2022-10-16T13:48:09;28.70;99.90
69031;DHT22;56083;48.774;8.942;2022-10-16T13:50:35;28.00;99.90
69031;DHT22;56083;48.774;8.942;2022-10-16T13:53:13;27.50;99.90
69031;DHT22;56083;48.774;8.942;2022-10-16T13:55:39;27.40;99.90
69031;DHT22;56083;48.774;8.942;2022-10-16T13:58:11;26.80;99.90
69031;DHT22;56083;48.774;8.942;2022-10-16T14:00:37;26.40;99.90
69031;DHT22;56083;48.774;8.942;2022-10-16T14:03:05;26.10;99.90
69031;DHT22;56083;48.774;8.942;2022-10-16T14:05:32;26.10;99.90
69031;DHT22;56083;48.774;8.942;2022-10-16T14:07:59;26.70;99.90
69031;DHT22;56083;48.774;8.942;2022-10-16T14:10:28;26.70;99.90
69031;DHT22;56083;48.774;8.942;2022-10-16T14:13:04;26.50;99.90
69031;DHT22;56083;48.774;8.942;2022-10-16T14:15:32;26.00;99.90
69031;DHT22;56083;48.774;8.942;2022-10-16T14:17:59;25.80;99.90
69031;DHT22;56083;48.774;8.942;2022-10-16T14:20:27;25.70;99.90
69031;DHT22;56083;48.774;8.942;2022-10-16T14:23:21;25.50;99.90
69031;DHT22;56083;48.774;8.942;2022-10-16T14:25:47;25.50;99.90
69031;DHT22;56083;48.774;8.942;2022-10-16T14:28:20;25.20;99.90
69031;DHT22;56083;48.774;8.942;2022-10-16T14:31:00;24.90;99.90
69031;DHT22;56083;48.774;8.942;2022-10-16T14:38:37;25.20;99.90
69031;DHT22;56083;48.774;8.942;2022-10-16T14:41:04;25.40;99.90
69031;DHT22;56083;48.774;8.942;2022-10-16T14:43:38;25.50;99.90
69031;DHT22;56083;48.774;8.942;2022-10-16T14:46:13;25.60;99.90
69031;DHT22;56083;48.774;8.942;2022-10-16T14:48:45;25.60;99.90
69031;DHT22;56083;48.774;8.942;2022-10-16T14:51:16;25.80;99.90
69031;DHT22;56083;48.774;8.942;2022-10-16T14:53:42;26.40;99.90
69031;DHT22;56083;48.774;8.942;2022-10-16T14:56:09;26.50;99.90
69031;DHT22;56083;48.774;8.942;2022-10-16T14:58:40;26.40;99.90
69031;DHT22;56083;48.774;8.942;2022-10-16T15:01:06;26.30;99.90
69031;DHT22;56083;48.774;8.942;2022-10-16T15:03:33;26.30;99.90
69031;DHT22;56083;48.774;8.942;2022-10-16T15:05:59;25.90;99.90
69031;DHT22;56083;48.774;8.942;2022-10-16T15:08:25;25.90;99.90
69031;DHT22;56083;48.774;8.942;2022-10-16T15:10:51;26.00;99.90
69031;DHT22;56083;48.774;8.942;2022-10-16T15:13:17;25.50;99.90
69031;DHT22;56083;48.774;8.942;2022-10-16T15:15:46;25.80;99.90
69031;DHT22;56083;48.774;8.942;2022-10-16T15:18:13;26.20;99.90
69031;DHT22;56083;48.774;8.942;2022-10-16T15:20:40;27.00;99.90
69031;DHT22;56083;48.774;8.942;2022-10-16T15:23:13;27.80;99.90
69031;DHT22;56083;48.774;8.942;2022-10-16T15:25:57;28.00;99.90
69031;DHT22;56083;48.774;8.942;2022-10-16T15:28:24;28.50;99.90
69031;DHT22;56083;48.774;8.942;2022-10-16T15:30:53;28.70;99.90
69031;DHT22;56083;48.774;8.942;2022-10-16T15:33:24;28.20;99.90
69031;DHT22;56083;48.774;8.942;2022-10-16T15:35:53;27.40;99.90
69031;DHT22;56083;48.774;8.942;2022-10-16T15:38:21;26.80;99.90
69031;DHT22;56083;48.774;8.942;2022-10-16T15:40:48;26.30;99.90
69031;DHT22;56083;48.774;8.942;2022-10-16T15:43:14;25.80;99.90
69031;DHT22;56083;48.774;8.942;2022-10-16T15:45:40;25.30;99.90
69031;DHT22;56083;48.774;8.942;2022-10-16T15:48:05;25.00;99.90
69031;DHT22;56083;48.774;8.942;2022-10-16T15:50:32;25.00;99.90
69031;DHT22;56083;48.774;8.942;2022-10-16T15:52:58;24.60;99.90
69031;DHT22;56083;48.774;8.942;2022-10-16T15:55:25;24.20;99.90
69031;DHT22;56083;48.774;8.942;2022-10-16T15:57:50;23.70;99.90
69031;DHT22;56083;48.774;8.942;2022-10-16T16:00:18;23.30;99.90
69031;DHT22;56083;48.774;8.942;2022-10-16T16:02:52;22.90;99.90
69031;DHT22;56083;48.774;8.942;2022-10-16T16:05:18;22.50;99.90
69031;DHT22;56083;48.774;8.942;2022-10-16T16:07:43;22.10;99.90
69031;DHT22;56083;48.774;8.942;2022-10-16T16:10:10;21.70;99.90
69031;DHT22;56083;48.774;8.942;2022-10-16T16:12:36;21.30;99.90
69031;DHT22;56083;48.774;8.942;2022-10-16T16:15:04;20.90;99.90
69031;DHT22;56083;48.774;8.942;2022-10-16T16:17:32;20.60;99.90
69031;DHT22;56083;48.774;8.942;2022-10-16T16:19:58;20.40;99.90
69031;DHT22;56083;48.774;8.942;2022-10-16T16:22:23;20.20;99.90
69031;DHT22;56083;48.774;8.942;2022-10-16T16:24:49;20.00;99.90
69031;DHT22;56083;48.774;8.942;2022-10-16T16:27:15;19.80;99.90
69031;DHT22;56083;48.774;8.942;2022-10-16T16:29:41;19.50;99.90
69031;DHT22;56083;48.774;8.942;2022-10-16T16:32:07;19.30;99.90
69031;DHT22;56083;48.774;8.942;2022-10-16T16:34:32;19.10;99.90
69031;DHT22;56083;48.774;8.942;2022-10-16T16:36:58;18.90;99.90
69031;DHT22;56083;48.774;8.942;2022-10-16T16:39:24;18.80;99.90
69031;DHT22;56083;48.774;8.942;2022-10-16T16:41:49;18.60;99.90
69031;DHT22;56083;48.774;8.942;2022-10-16T16:44:16;18.50;99.90
69031;DHT22;56083;48.774;8.942;2022-10-16T16:46:43;18.40;99.90
69031;DHT22;56083;48.774;8.942;2022-10-16T16:49:11;18.20;99.90
69031;DHT22;56083;48.774;8.942;2022-10-16T16:51:37;18.20;99.90
69031;DHT22;56083;48.774;8.942;2022-10-16T16:54:04;18.10;99.90
69031;DHT22;56083;48.774;8.942;2022-10-16T16:56:30;18.00;99.90
69031;DHT22;56083;48.774;8.942;2022-10-16T16:58:57;17.90;99.90
69031;DHT22;56083;48.774;8.942;2022-10-16T17:01:25;17.70;99.90
69031;DHT22;56083;48.774;8.942;2022-10-16T17:03:52;17.50;99.90
69031;DHT22;56083;48.774;8.942;2022-10-16T17:06:21;17.40;99.90
69031;DHT22;56083;48.774;8.942;2022-10-16T17:08:48;17.30;99.90
69031;DHT22;56083;48.774;8.942;2022-10-16T17:11:16;17.20;99.90
69031;DHT22;56083;48.774;8.942;2022-10-16T17:13:43;17.10;99.90
69031;DHT22;56083;48.774;8.942;2022-10-16T17:16:09;16.90;99.90
69031;DHT22;56083;48.774;8.942;2022-10-16T17:18:35;16.80;99.90
69031;DHT22;56083;48.774;8.942;2022-10-16T17:21:02;16.70;99.90
69031;DHT22;56083;48.774;8.942;2022-10-16T17:23:28;16.60;99.90
69031;DHT22;56083;48.774;8.942;2022-10-16T17:25:54;16.50;99.90
69031;DHT22;56083;48.774;8.942;2022-10-16T17:28:20;16.30;99.90